sensor_id;sensor_type;location;lat;lon;timestamp;temperature;humidity
10443;DHT22;5269;51.146;16.986;2023-05-18T00:01:57;8.50;1.40
10443;DHT22;5269;51.146;16.986;2023-05-18T00:04:24;8.50;99.90
10443;DHT22;5269;51.146;16.986;2023-05-18T00:06:51;8.40;99.90
10443;DHT22;5269;51.146;16.986;2023-05-18T00:09:22;8.40;99.90
10443;DHT22;5269;51.146;16.986;2023-05-18T00:11:49;8.40;99.90
10443;DHT22;5269;51.146;16.986;2023-05-18T00:14:16;8.40;99.90
10443;DHT22;5269;51.146;16.986;2023-05-18T00:16:44;8.30;99.90
10443;DHT22;5269;51.146;16.986;2023-05-18T00:19:11;8.30;99.90
10443;DHT22;5269;51.146;16.986;2023-05-18T00:21:39;8.30;99.90
10443;DHT22;5269;51.146;16.986;2023-05-18T00:24:07;8.40;1.00
10443;DHT22;5269;51.146;16.986;2023-05-18T00:26:36;8.40;1.00
10443;DHT22;5269;51.146;16.986;2023-05-18T00:29:03;8.40;1.00
10443;DHT22;5269;51.146;16.986;2023-05-18T00:31:30;8.30;1.00
10443;DHT22;5269;51.146;16.986;2023-05-18T00:34:02;8.30;1.00
10443;DHT22;5269;51.146;16.986;2023-05-18T00:36:29;8.30;1.00
10443;DHT22;5269;51.146;16.986;2023-05-18T00:38:56;8.20;1.00
10443;DHT22;5269;51.146;16.986;2023-05-18T00:41:24;8.20;1.00
10443;DHT22;5269;51.146;16.986;2023-05-18T00:43:51;8.20;1.00
10443;DHT22;5269;51.146;16.986;2023-05-18T00:46:18;8.20;1.00
10443;DHT22;5269;51.146;16.986;2023-05-18T00:48:45;8.20;1.00
10443;DHT22;5269;51.146;16.986;2023-05-18T00:51:14;8.00;1.00
10443;DHT22;5269;51.146;16.986;2023-05-18T00:53:41;8.00;1.00
10443;DHT22;5269;51.146;16.986;2023-05-18T00:56:09;8.00;55.50
10443;DHT22;5269;51.146;16.986;2023-05-18T00:58:37;8.00;47.20
10443;DHT22;5269;51.146;16.986;2023-05-18T01:01:05;8.00;79.30
10443;DHT22;5269;51.146;16.986;2023-05-18T01:03:34;8.00;95.40
10443;DHT22;5269;51.146;16.986;2023-05-18T01:06:03;7.90;18.10
10443;DHT22;5269;51.146;16.986;2023-05-18T01:08:32;7.90;38.10
10443;DHT22;5269;51.146;16.986;2023-05-18T01:11:13;7.80;88.20
10443;DHT22;5269;51.146;16.986;2023-05-18T01:13:49;7.70;99.90
10443;DHT22;5269;51.146;16.986;2023-05-18T01:16:24;7.70;99.90
10443;DHT22;5269;51.146;16.986;2023-05-18T01:18:55;7.60;99.90
10443;DHT22;5269;51.146;16.986;2023-05-18T01:21:37;7.70;99.90
10443;DHT22;5269;51.146;16.986;2023-05-18T01:24:23;7.70;99.90
10443;DHT22;5269;51.146;16.986;2023-05-18T01:26:55;7.70;2.10
10443;DHT22;5269;51.146;16.986;2023-05-18T01:29:25;7.70;1.00
10443;DHT22;5269;51.146;16.986;2023-05-18T01:31:54;7.70;1.00
10443;DHT22;5269;51.146;16.986;2023-05-18T01:34:22;7.70;1.00
10443;DHT22;5269;51.146;16.986;2023-05-18T01:36:49;7.70;1.00
10443;DHT22;5269;51.146;16.986;2023-05-18T01:39:16;7.70;1.00
10443;DHT22;5269;51.146;16.986;2023-05-18T01:41:48;7.60;1.00
10443;DHT22;5269;51.146;16.986;2023-05-18T01:44:21;7.60;1.00
10443;DHT22;5269;51.146;16.986;2023-05-18T01:46:53;7.50;1.00
10443;DHT22;5269;51.146;16.986;2023-05-18T01:49:28;7.50;12.40
10443;DHT22;5269;51.146;16.986;2023-05-18T01:51:59;7.60;99.90
10443;DHT22;5269;51.146;16.986;2023-05-18T01:54:28;7.50;99.90
10443;DHT22;5269;51.146;16.986;2023-05-18T01:56:57;7.50;99.90
10443;DHT22;5269;51.146;16.986;2023-05-18T01:59:26;7.40;99.90
10443;DHT22;5269;51.146;16.986;2023-05-18T02:01:57;7.40;99.90
10443;DHT22;5269;51.146;16.986;2023-05-18T02:04:24;7.40;99.90
10443;DHT22;5269;51.146;16.986;2023-05-18T02:06:51;7.40;1.00
10443;DHT22;5269;51.146;16.986;2023-05-18T02:09:19;7.40;99.90
10443;DHT22;5269;51.146;16.986;2023-05-18T02:11:46;7.30;99.90
10443;DHT22;5269;51.146;16.986;2023-05-18T02:14:13;7.40;1.00
10443;DHT22;5269;51.146;16.986;2023-05-18T02:16:42;7.30;1.00
10443;DHT22;5269;51.146;16.986;2023-05-18T02:19:12;7.20;1.00
10443;DHT22;5269;51.146;16.986;2023-05-18T02:21:39;7.20;1.00
10443;DHT22;5269;51.146;16.986;2023-05-18T02:24:07;7.20;1.00
10443;DHT22;5269;51.146;16.986;2023-05-18T02:26:34;7.30;1.00
10443;DHT22;5269;51.146;16.986;2023-05-18T02:29:02;7.20;99.90
10443;DHT22;5269;51.146;16.986;2023-05-18T02:31:31;7.20;1.00
10443;DHT22;5269;51.146;16.986;2023-05-18T02:33:59;7.10;1.00
10443;DHT22;5269;51.146;16.986;2023-05-18T02:36:26;7.00;1.00
10443;DHT22;5269;51.146;16.986;2023-05-18T02:39:02;7.00;1.00
10443;DHT22;5269;51.146;16.986;2023-05-18T02:41:30;7.00;99.90
10443;DHT22;5269;51.146;16.986;2023-05-18T02:43:56;7.00;99.90
10443;DHT22;5269;51.146;16.986;2023-05-18T02:46:23;7.00;99.90
10443;DHT22;5269;51.146;16.986;2023-05-18T02:48:51;6.90;1.00
10443;DHT22;5269;51.146;16.986;2023-05-18T02:51:19;6.90;99.90
10443;DHT22;5269;51.146;16.986;2023-05-18T02:53:46;7.00;1.00
10443;DHT22;5269;51.146;16.986;2023-05-18T02:56:13;6.90;1.00
10443;DHT22;5269;51.146;16.986;2023-05-18T02:58:42;6.80;1.00
10443;DHT22;5269;51.146;16.986;2023-05-18T03:01:09;6.80;99.90
10443;DHT22;5269;51.146;16.986;2023-05-18T03:03:38;6.70;1.00
10443;DHT22;5269;51.146;16.986;2023-05-18T03:06:06;6.80;99.90
10443;DHT22;5269;51.146;16.986;2023-05-18T03:08:35;6.80;99.90
10443;DHT22;5269;51.146;16.986;2023-05-18T03:11:02;6.70;99.90
10443;DHT22;5269;51.146;16.986;2023-05-18T03:13:29;6.70;99.90
10443;DHT22;5269;51.146;16.986;2023-05-18T03:15:56;6.80;99.90
10443;DHT22;5269;51.146;16.986;2023-05-18T03:18:23;6.80;99.90
10443;DHT22;5269;51.146;16.986;2023-05-18T03:20:50;6.80;1.00
10443;DHT22;5269;51.146;16.986;2023-05-18T03:23:17;6.80;95.40
10443;DHT22;5269;51.146;16.986;2023-05-18T03:25:46;6.80;42.70
10443;DHT22;5269;51.146;16.986;2023-05-18T03:28:18;6.80;1.00
10443;DHT22;5269;51.146;16.986;2023-05-18T03:30:45;6.90;1.00
10443;DHT22;5269;51.146;16.986;2023-05-18T03:33:11;6.90;1.00
10443;DHT22;5269;51.146;16.986;2023-05-18T03:35:39;6.90;99.90
10443;DHT22;5269;51.146;16.986;2023-05-18T03:38:06;6.90;99.90
10443;DHT22;5269;51.146;16.986;2023-05-18T03:40:32;6.90;54.10
10443;DHT22;5269;51.146;16.986;2023-05-18T03:43:01;6.80;33.80
10443;DHT22;5269;51.146;16.986;2023-05-18T03:45:28;6.80;99.90
10443;DHT22;5269;51.146;16.986;2023-05-18T03:47:55;6.80;90.90
10443;DHT22;5269;51.146;16.986;2023-05-18T03:50:22;6.80;47.70
10443;DHT22;5269;51.146;16.986;2023-05-18T03:52:48;6.80;1.00
10443;DHT22;5269;51.146;16.986;2023-05-18T03:55:17;6.90;1.00
10443;DHT22;5269;51.146;16.986;2023-05-18T03:57:46;7.00;1.00
10443;DHT22;5269;51.146;16.986;2023-05-18T04:00:14;7.00;1.00
10443;DHT22;5269;51.146;16.986;2023-05-18T04:02:41;7.10;1.00
10443;DHT22;5269;51.146;16.986;2023-05-18T04:05:08;7.10;1.00
10443;DHT22;5269;51.146;16.986;2023-05-18T04:07:36;7.20;1.00
10443;DHT22;5269;51.146;16.986;2023-05-18T04:10:09;7.30;99.90
10443;DHT22;5269;51.146;16.986;2023-05-18T04:12:36;7.20;99.90
10443;DHT22;5269;51.146;16.986;2023-05-18T04:15:04;7.30;99.90
10443;DHT22;5269;51.146;16.986;2023-05-18T04:17:32;7.30;99.90
10443;DHT22;5269;51.146;16.986;2023-05-18T04:20:00;7.30;99.90
10443;DHT22;5269;51.146;16.986;2023-05-18T04:22:30;7.40;99.90
10443;DHT22;5269;51.146;16.986;2023-05-18T04:24:57;7.40;99.90
10443;DHT22;5269;51.146;16.986;2023-05-18T04:27:26;7.40;99.90
10443;DHT22;5269;51.146;16.986;2023-05-18T04:29:54;7.60;99.90
10443;DHT22;5269;51.146;16.986;2023-05-18T04:32:20;7.50;42.30
10443;DHT22;5269;51.146;16.986;2023-05-18T04:34:52;7.60;99.90
10443;DHT22;5269;51.146;16.986;2023-05-18T04:37:23;7.60;42.70
10443;DHT22;5269;51.146;16.986;2023-05-18T04:39:49;7.70;51.00
10443;DHT22;5269;51.146;16.986;2023-05-18T04:42:18;7.60;1.00
10443;DHT22;5269;51.146;16.986;2023-05-18T04:44:45;7.60;73.80
10443;DHT22;5269;51.146;16.986;2023-05-18T04:47:13;7.60;58.90
10443;DHT22;5269;51.146;16.986;2023-05-18T04:49:40;7.60;24.10
10443;DHT22;5269;51.146;16.986;2023-05-18T04:52:09;7.70;1.00
10443;DHT22;5269;51.146;16.986;2023-05-18T04:54:36;7.70;1.00
10443;DHT22;5269;51.146;16.986;2023-05-18T04:57:06;7.70;1.00
10443;DHT22;5269;51.146;16.986;2023-05-18T04:59:33;7.70;1.00
10443;DHT22;5269;51.146;16.986;2023-05-18T05:02:02;7.70;1.00
10443;DHT22;5269;51.146;16.986;2023-05-18T05:04:29;7.80;1.00
10443;DHT22;5269;51.146;16.986;2023-05-18T05:06:56;7.90;1.00
10443;DHT22;5269;51.146;16.986;2023-05-18T05:09:24;8.00;1.00
10443;DHT22;5269;51.146;16.986;2023-05-18T05:11:51;8.00;1.00
10443;DHT22;5269;51.146;16.986;2023-05-18T05:14:20;8.10;1.00
10443;DHT22;5269;51.146;16.986;2023-05-18T05:16:46;8.20;1.00
10443;DHT22;5269;51.146;16.986;2023-05-18T05:19:13;8.10;1.00
10443;DHT22;5269;51.146;16.986;2023-05-18T05:21:40;8.20;1.00
10443;DHT22;5269;51.146;16.986;2023-05-18T05:24:07;8.20;1.00
10443;DHT22;5269;51.146;16.986;2023-05-18T05:26:36;8.40;1.00
10443;DHT22;5269;51.146;16.986;2023-05-18T05:29:03;8.50;99.90
10443;DHT22;5269;51.146;16.986;2023-05-18T05:31:29;8.70;99.90
10443;DHT22;5269;51.146;16.986;2023-05-18T05:33:56;8.70;99.90
10443;DHT22;5269;51.146;16.986;2023-05-18T05:36:23;8.70;99.90
10443;DHT22;5269;51.146;16.986;2023-05-18T05:38:50;8.70;93.30
10443;DHT22;5269;51.146;16.986;2023-05-18T05:41:17;8.80;99.90
10443;DHT22;5269;51.146;16.986;2023-05-18T05:43:45;9.00;14.40
10443;DHT22;5269;51.146;16.986;2023-05-18T05:46:12;9.00;1.00
10443;DHT22;5269;51.146;16.986;2023-05-18T05:48:39;8.90;1.00
10443;DHT22;5269;51.146;16.986;2023-05-18T05:51:06;9.10;1.00
10443;DHT22;5269;51.146;16.986;2023-05-18T05:53:33;9.00;1.00
10443;DHT22;5269;51.146;16.986;2023-05-18T05:56:00;9.10;1.00
10443;DHT22;5269;51.146;16.986;2023-05-18T05:58:27;9.30;1.00
10443;DHT22;5269;51.146;16.986;2023-05-18T06:00:55;9.40;1.00
10443;DHT22;5269;51.146;16.986;2023-05-18T06:03:22;9.50;1.00
10443;DHT22;5269;51.146;16.986;2023-05-18T06:05:51;9.60;1.00
10443;DHT22;5269;51.146;16.986;2023-05-18T06:08:18;9.70;1.00
10443;DHT22;5269;51.146;16.986;2023-05-18T06:10:45;9.70;1.00
10443;DHT22;5269;51.146;16.986;2023-05-18T06:13:12;9.80;1.00
10443;DHT22;5269;51.146;16.986;2023-05-18T06:15:39;9.80;1.00
10443;DHT22;5269;51.146;16.986;2023-05-18T06:18:07;9.80;1.00
10443;DHT22;5269;51.146;16.986;2023-05-18T06:20:34;9.90;1.00
10443;DHT22;5269;51.146;16.986;2023-05-18T06:23:01;10.10;1.00
10443;DHT22;5269;51.146;16.986;2023-05-18T06:25:28;10.20;1.00
10443;DHT22;5269;51.146;16.986;2023-05-18T06:27:55;10.40;1.00
10443;DHT22;5269;51.146;16.986;2023-05-18T06:30:22;10.20;1.00
10443;DHT22;5269;51.146;16.986;2023-05-18T06:32:49;10.10;1.00
10443;DHT22;5269;51.146;16.986;2023-05-18T06:35:17;10.20;1.00
10443;DHT22;5269;51.146;16.986;2023-05-18T06:37:44;10.30;1.00
10443;DHT22;5269;51.146;16.986;2023-05-18T06:40:11;10.40;1.00
10443;DHT22;5269;51.146;16.986;2023-05-18T06:42:38;10.50;1.00
10443;DHT22;5269;51.146;16.986;2023-05-18T06:45:06;10.70;1.00
10443;DHT22;5269;51.146;16.986;2023-05-18T06:47:33;10.60;1.00
10443;DHT22;5269;51.146;16.986;2023-05-18T06:50:00;10.60;1.00
10443;DHT22;5269;51.146;16.986;2023-05-18T06:52:28;10.70;1.00
10443;DHT22;5269;51.146;16.986;2023-05-18T06:54:56;10.80;1.00
10443;DHT22;5269;51.146;16.986;2023-05-18T06:57:24;10.70;1.00
10443;DHT22;5269;51.146;16.986;2023-05-18T06:59:51;10.70;1.00
10443;DHT22;5269;51.146;16.986;2023-05-18T07:02:18;10.80;1.00
10443;DHT22;5269;51.146;16.986;2023-05-18T07:04:46;10.80;1.00
10443;DHT22;5269;51.146;16.986;2023-05-18T07:07:14;10.90;1.00
10443;DHT22;5269;51.146;16.986;2023-05-18T07:09:42;10.90;1.00
10443;DHT22;5269;51.146;16.986;2023-05-18T07:12:10;10.80;1.00
10443;DHT22;5269;51.146;16.986;2023-05-18T07:14:37;10.80;1.00
10443;DHT22;5269;51.146;16.986;2023-05-18T07:17:07;11.00;1.00
10443;DHT22;5269;51.146;16.986;2023-05-18T07:19:33;11.20;1.00
10443;DHT22;5269;51.146;16.986;2023-05-18T07:22:01;11.40;1.00
10443;DHT22;5269;51.146;16.986;2023-05-18T07:24:29;11.40;1.00
10443;DHT22;5269;51.146;16.986;2023-05-18T07:26:57;11.30;1.00
10443;DHT22;5269;51.146;16.986;2023-05-18T07:29:24;11.40;1.00
10443;DHT22;5269;51.146;16.986;2023-05-18T07:31:51;11.20;1.00
10443;DHT22;5269;51.146;16.986;2023-05-18T07:34:18;11.30;1.00
10443;DHT22;5269;51.146;16.986;2023-05-18T07:36:45;11.60;1.00
10443;DHT22;5269;51.146;16.986;2023-05-18T07:39:14;11.50;1.00
10443;DHT22;5269;51.146;16.986;2023-05-18T07:41:44;11.60;1.00
10443;DHT22;5269;51.146;16.986;2023-05-18T07:44:15;11.40;1.00
10443;DHT22;5269;51.146;16.986;2023-05-18T07:46:42;11.70;1.00
10443;DHT22;5269;51.146;16.986;2023-05-18T07:49:09;11.90;1.00
10443;DHT22;5269;51.146;16.986;2023-05-18T07:51:36;12.30;1.00
10443;DHT22;5269;51.146;16.986;2023-05-18T07:54:03;12.60;1.00
10443;DHT22;5269;51.146;16.986;2023-05-18T07:56:30;12.60;1.00
10443;DHT22;5269;51.146;16.986;2023-05-18T07:58:57;12.50;1.00
10443;DHT22;5269;51.146;16.986;2023-05-18T08:01:25;12.40;1.00
10443;DHT22;5269;51.146;16.986;2023-05-18T08:03:54;12.50;1.00
10443;DHT22;5269;51.146;16.986;2023-05-18T08:06:21;12.50;1.00
10443;DHT22;5269;51.146;16.986;2023-05-18T08:08:48;12.50;1.00
10443;DHT22;5269;51.146;16.986;2023-05-18T08:11:16;12.60;1.00
10443;DHT22;5269;51.146;16.986;2023-05-18T08:13:43;12.50;1.00
10443;DHT22;5269;51.146;16.986;2023-05-18T08:16:11;12.50;1.00
10443;DHT22;5269;51.146;16.986;2023-05-18T08:18:40;12.50;1.00
10443;DHT22;5269;51.146;16.986;2023-05-18T08:21:07;12.50;1.00
10443;DHT22;5269;51.146;16.986;2023-05-18T08:23:34;12.70;1.00
10443;DHT22;5269;51.146;16.986;2023-05-18T08:26:02;12.60;1.00
10443;DHT22;5269;51.146;16.986;2023-05-18T08:28:29;12.70;1.00
10443;DHT22;5269;51.146;16.986;2023-05-18T08:30:56;12.70;1.00
10443;DHT22;5269;51.146;16.986;2023-05-18T08:33:23;12.90;99.90
10443;DHT22;5269;51.146;16.986;2023-05-18T08:35:53;13.00;99.90
10443;DHT22;5269;51.146;16.986;2023-05-18T08:38:20;13.00;99.90
10443;DHT22;5269;51.146;16.986;2023-05-18T08:40:55;12.90;99.90
10443;DHT22;5269;51.146;16.986;2023-05-18T08:43:24;12.80;99.90
10443;DHT22;5269;51.146;16.986;2023-05-18T08:46:04;13.00;1.00
10443;DHT22;5269;51.146;16.986;2023-05-18T08:48:33;13.00;99.90
10443;DHT22;5269;51.146;16.986;2023-05-18T08:51:05;13.30;1.00
10443;DHT22;5269;51.146;16.986;2023-05-18T08:53:34;13.40;99.90
10443;DHT22;5269;51.146;16.986;2023-05-18T08:56:03;13.30;99.90
10443;DHT22;5269;51.146;16.986;2023-05-18T08:58:34;13.50;99.90
10443;DHT22;5269;51.146;16.986;2023-05-18T09:01:03;13.60;99.90
10443;DHT22;5269;51.146;16.986;2023-05-18T09:03:30;13.50;99.90
10443;DHT22;5269;51.146;16.986;2023-05-18T09:05:59;13.30;99.90
10443;DHT22;5269;51.146;16.986;2023-05-18T09:08:29;13.30;99.90
10443;DHT22;5269;51.146;16.986;2023-05-18T09:10:59;13.60;99.90
10443;DHT22;5269;51.146;16.986;2023-05-18T09:13:27;13.80;99.90
10443;DHT22;5269;51.146;16.986;2023-05-18T09:15:54;13.90;99.90
10443;DHT22;5269;51.146;16.986;2023-05-18T09:18:21;13.80;99.90
10443;DHT22;5269;51.146;16.986;2023-05-18T09:20:48;13.70;99.90
10443;DHT22;5269;51.146;16.986;2023-05-18T09:23:15;13.80;99.90
10443;DHT22;5269;51.146;16.986;2023-05-18T09:25:45;13.60;99.90
10443;DHT22;5269;51.146;16.986;2023-05-18T09:28:25;13.70;99.90
10443;DHT22;5269;51.146;16.986;2023-05-18T09:30:52;13.40;99.90
10443;DHT22;5269;51.146;16.986;2023-05-18T09:33:19;13.70;99.90
10443;DHT22;5269;51.146;16.986;2023-05-18T09:35:49;13.90;99.90
10443;DHT22;5269;51.146;16.986;2023-05-18T09:38:16;14.10;99.90
10443;DHT22;5269;51.146;16.986;2023-05-18T09:40:48;14.10;99.90
10443;DHT22;5269;51.146;16.986;2023-05-18T09:43:18;14.10;99.90
10443;DHT22;5269;51.146;16.986;2023-05-18T09:45:46;14.10;99.90
10443;DHT22;5269;51.146;16.986;2023-05-18T09:48:14;14.20;99.90
10443;DHT22;5269;51.146;16.986;2023-05-18T09:50:42;14.20;99.90
10443;DHT22;5269;51.146;16.986;2023-05-18T09:53:12;14.50;99.90
10443;DHT22;5269;51.146;16.986;2023-05-18T09:55:45;14.40;99.90
10443;DHT22;5269;51.146;16.986;2023-05-18T09:58:14;14.10;99.90
10443;DHT22;5269;51.146;16.986;2023-05-18T10:00:43;14.10;99.90
10443;DHT22;5269;51.146;16.986;2023-05-18T10:03:17;14.10;99.90
10443;DHT22;5269;51.146;16.986;2023-05-18T10:05:45;14.40;99.90
10443;DHT22;5269;51.146;16.986;2023-05-18T10:08:12;14.70;99.90
10443;DHT22;5269;51.146;16.986;2023-05-18T10:10:45;15.00;99.90
10443;DHT22;5269;51.146;16.986;2023-05-18T10:13:14;15.30;99.90
10443;DHT22;5269;51.146;16.986;2023-05-18T10:15:48;15.30;99.90
10443;DHT22;5269;51.146;16.986;2023-05-18T10:18:20;15.10;99.90
10443;DHT22;5269;51.146;16.986;2023-05-18T10:20:49;14.80;99.90
10443;DHT22;5269;51.146;16.986;2023-05-18T10:23:17;14.70;99.90
10443;DHT22;5269;51.146;16.986;2023-05-18T10:25:46;14.70;99.90
10443;DHT22;5269;51.146;16.986;2023-05-18T10:28:18;14.60;99.90
10443;DHT22;5269;51.146;16.986;2023-05-18T10:30:59;14.40;99.90
10443;DHT22;5269;51.146;16.986;2023-05-18T10:33:45;14.50;99.90
10443;DHT22;5269;51.146;16.986;2023-05-18T10:36:13;14.40;99.90
10443;DHT22;5269;51.146;16.986;2023-05-18T10:38:42;14.40;99.90
10443;DHT22;5269;51.146;16.986;2023-05-18T10:41:11;14.30;99.90
10443;DHT22;5269;51.146;16.986;2023-05-18T10:43:43;14.50;99.90
10443;DHT22;5269;51.146;16.986;2023-05-18T10:46:12;14.60;99.90
10443;DHT22;5269;51.146;16.986;2023-05-18T10:48:42;14.50;99.90
10443;DHT22;5269;51.146;16.986;2023-05-18T10:51:12;14.50;99.90
10443;DHT22;5269;51.146;16.986;2023-05-18T10:53:42;14.60;99.90
10443;DHT22;5269;51.146;16.986;2023-05-18T10:56:12;14.40;99.90
10443;DHT22;5269;51.146;16.986;2023-05-18T10:58:43;14.20;99.90
10443;DHT22;5269;51.146;16.986;2023-05-18T11:01:11;14.30;99.90
10443;DHT22;5269;51.146;16.986;2023-05-18T11:03:38;14.50;99.90
10443;DHT22;5269;51.146;16.986;2023-05-18T11:06:07;14.60;99.90
10443;DHT22;5269;51.146;16.986;2023-05-18T11:08:41;14.70;99.90
10443;DHT22;5269;51.146;16.986;2023-05-18T11:11:09;14.80;99.90
10443;DHT22;5269;51.146;16.986;2023-05-18T11:13:43;14.70;99.90
10443;DHT22;5269;51.146;16.986;2023-05-18T11:16:11;14.70;99.90
10443;DHT22;5269;51.146;16.986;2023-05-18T11:18:43;14.70;99.90
10443;DHT22;5269;51.146;16.986;2023-05-18T11:21:49;14.70;99.90
10443;DHT22;5269;51.146;16.986;2023-05-18T11:24:18;15.00;99.90
10443;DHT22;5269;51.146;16.986;2023-05-18T11:26:47;15.10;99.90
10443;DHT22;5269;51.146;16.986;2023-05-18T11:29:20;15.40;99.90
10443;DHT22;5269;51.146;16.986;2023-05-18T11:31:48;15.40;99.90
10443;DHT22;5269;51.146;16.986;2023-05-18T11:34:49;15.30;99.90
10443;DHT22;5269;51.146;16.986;2023-05-18T11:37:46;15.30;99.90
10443;DHT22;5269;51.146;16.986;2023-05-18T11:40:44;15.20;99.90
10443;DHT22;5269;51.146;16.986;2023-05-18T11:43:18;15.20;99.90
10443;DHT22;5269;51.146;16.986;2023-05-18T11:45:53;15.30;99.90
10443;DHT22;5269;51.146;16.986;2023-05-18T11:48:21;15.40;99.90
10443;DHT22;5269;51.146;16.986;2023-05-18T11:50:48;15.30;99.90
10443;DHT22;5269;51.146;16.986;2023-05-18T11:53:18;15.20;99.90
10443;DHT22;5269;51.146;16.986;2023-05-18T11:55:45;15.20;99.90
10443;DHT22;5269;51.146;16.986;2023-05-18T11:58:12;15.10;99.90
10443;DHT22;5269;51.146;16.986;2023-05-18T12:00:44;15.30;99.90
10443;DHT22;5269;51.146;16.986;2023-05-18T12:03:14;15.50;99.90
10443;DHT22;5269;51.146;16.986;2023-05-18T12:05:42;15.70;99.90
10443;DHT22;5269;51.146;16.986;2023-05-18T12:08:15;15.90;99.90
10443;DHT22;5269;51.146;16.986;2023-05-18T12:10:44;15.80;99.90
10443;DHT22;5269;51.146;16.986;2023-05-18T12:13:12;16.00;99.90
10443;DHT22;5269;51.146;16.986;2023-05-18T12:15:40;15.60;99.90
10443;DHT22;5269;51.146;16.986;2023-05-18T12:18:07;15.40;99.90
10443;DHT22;5269;51.146;16.986;2023-05-18T12:20:38;15.60;99.90
10443;DHT22;5269;51.146;16.986;2023-05-18T12:23:11;15.50;99.90
10443;DHT22;5269;51.146;16.986;2023-05-18T12:25:38;15.70;99.90
10443;DHT22;5269;51.146;16.986;2023-05-18T12:28:07;15.80;99.90
10443;DHT22;5269;51.146;16.986;2023-05-18T12:30:34;15.80;99.90
10443;DHT22;5269;51.146;16.986;2023-05-18T12:33:04;15.80;99.90
10443;DHT22;5269;51.146;16.986;2023-05-18T12:35:32;15.80;99.90
10443;DHT22;5269;51.146;16.986;2023-05-18T12:38:00;15.90;99.90
10443;DHT22;5269;51.146;16.986;2023-05-18T12:40:34;15.90;99.90
10443;DHT22;5269;51.146;16.986;2023-05-18T12:43:08;16.00;99.90
10443;DHT22;5269;51.146;16.986;2023-05-18T12:45:35;16.10;99.90
10443;DHT22;5269;51.146;16.986;2023-05-18T12:48:09;16.40;99.90
10443;DHT22;5269;51.146;16.986;2023-05-18T12:50:45;16.10;99.90
10443;DHT22;5269;51.146;16.986;2023-05-18T12:53:15;16.30;99.90
10443;DHT22;5269;51.146;16.986;2023-05-18T12:55:44;16.30;99.90
10443;DHT22;5269;51.146;16.986;2023-05-18T12:58:13;16.30;99.90
10443;DHT22;5269;51.146;16.986;2023-05-18T13:00:45;16.20;99.90
10443;DHT22;5269;51.146;16.986;2023-05-18T13:03:14;16.30;99.90
10443;DHT22;5269;51.146;16.986;2023-05-18T13:05:42;16.40;99.90
10443;DHT22;5269;51.146;16.986;2023-05-18T13:08:14;16.30;99.90
10443;DHT22;5269;51.146;16.986;2023-05-18T13:10:43;16.40;99.90
10443;DHT22;5269;51.146;16.986;2023-05-18T13:13:17;16.50;99.90
10443;DHT22;5269;51.146;16.986;2023-05-18T13:15:45;16.50;99.90
10443;DHT22;5269;51.146;16.986;2023-05-18T13:18:13;16.30;99.90
10443;DHT22;5269;51.146;16.986;2023-05-18T13:20:43;16.50;99.90
10443;DHT22;5269;51.146;16.986;2023-05-18T13:23:15;16.60;99.90
10443;DHT22;5269;51.146;16.986;2023-05-18T13:25:44;17.00;99.90
10443;DHT22;5269;51.146;16.986;2023-05-18T13:28:13;17.20;99.90
10443;DHT22;5269;51.146;16.986;2023-05-18T13:30:41;17.30;99.90
10443;DHT22;5269;51.146;16.986;2023-05-18T13:33:16;17.20;99.90
10443;DHT22;5269;51.146;16.986;2023-05-18T13:35:44;17.10;99.90
10443;DHT22;5269;51.146;16.986;2023-05-18T13:38:13;17.10;99.90
10443;DHT22;5269;51.146;16.986;2023-05-18T13:40:41;17.60;99.90
10443;DHT22;5269;51.146;16.986;2023-05-18T13:43:08;17.80;99.90
10443;DHT22;5269;51.146;16.986;2023-05-18T13:45:41;17.30;99.90
10443;DHT22;5269;51.146;16.986;2023-05-18T13:48:08;17.40;99.90
10443;DHT22;5269;51.146;16.986;2023-05-18T13:50:35;17.70;99.90
10443;DHT22;5269;51.146;16.986;2023-05-18T13:53:02;18.00;99.90
10443;DHT22;5269;51.146;16.986;2023-05-18T13:55:31;18.10;99.90
10443;DHT22;5269;51.146;16.986;2023-05-18T13:57:58;18.30;99.90
10443;DHT22;5269;51.146;16.986;2023-05-18T14:00:25;18.60;99.90
10443;DHT22;5269;51.146;16.986;2023-05-18T14:02:52;18.70;99.90
10443;DHT22;5269;51.146;16.986;2023-05-18T14:05:21;18.50;99.90
10443;DHT22;5269;51.146;16.986;2023-05-18T14:07:48;18.60;99.90
10443;DHT22;5269;51.146;16.986;2023-05-18T14:10:20;18.80;99.90
10443;DHT22;5269;51.146;16.986;2023-05-18T14:12:48;18.90;99.90
10443;DHT22;5269;51.146;16.986;2023-05-18T14:15:15;18.60;99.90
10443;DHT22;5269;51.146;16.986;2023-05-18T14:17:42;18.60;99.90
10443;DHT22;5269;51.146;16.986;2023-05-18T14:20:11;18.70;99.90
10443;DHT22;5269;51.146;16.986;2023-05-18T14:22:40;18.60;99.90
10443;DHT22;5269;51.146;16.986;2023-05-18T14:25:08;18.70;99.90
10443;DHT22;5269;51.146;16.986;2023-05-18T14:27:35;18.80;99.90
10443;DHT22;5269;51.146;16.986;2023-05-18T14:30:04;19.00;99.90
10443;DHT22;5269;51.146;16.986;2023-05-18T14:32:32;19.10;99.90
10443;DHT22;5269;51.146;16.986;2023-05-18T14:34:59;19.30;99.90
10443;DHT22;5269;51.146;16.986;2023-05-18T14:37:26;19.10;99.90
10443;DHT22;5269;51.146;16.986;2023-05-18T14:39:53;19.10;99.90
10443;DHT22;5269;51.146;16.986;2023-05-18T14:42:20;19.30;99.90
10443;DHT22;5269;51.146;16.986;2023-05-18T14:44:47;19.50;99.90
10443;DHT22;5269;51.146;16.986;2023-05-18T14:47:18;19.30;99.90
10443;DHT22;5269;51.146;16.986;2023-05-18T14:52:42;19.10;99.90
10443;DHT22;5269;51.146;16.986;2023-05-18T14:55:09;19.30;99.90
10443;DHT22;5269;51.146;16.986;2023-05-18T14:57:36;19.50;99.90
10443;DHT22;5269;51.146;16.986;2023-05-18T15:00:04;19.70;99.90
10443;DHT22;5269;51.146;16.986;2023-05-18T15:02:32;19.50;99.90
10443;DHT22;5269;51.146;16.986;2023-05-18T15:05:13;19.30;99.90
10443;DHT22;5269;51.146;16.986;2023-05-18T15:07:43;19.10;99.90
10443;DHT22;5269;51.146;16.986;2023-05-18T15:10:10;19.20;99.90
10443;DHT22;5269;51.146;16.986;2023-05-18T15:12:37;19.10;99.90
10443;DHT22;5269;51.146;16.986;2023-05-18T15:15:05;19.10;99.90
10443;DHT22;5269;51.146;16.986;2023-05-18T15:17:42;19.50;99.90
10443;DHT22;5269;51.146;16.986;2023-05-18T15:20:10;19.80;99.90
10443;DHT22;5269;51.146;16.986;2023-05-18T15:22:40;19.70;99.90
10443;DHT22;5269;51.146;16.986;2023-05-18T15:26:02;20.00;99.90
10443;DHT22;5269;51.146;16.986;2023-05-18T15:28:19;19.90;99.90
10443;DHT22;5269;51.146;16.986;2023-05-18T15:30:46;19.90;99.90
10443;DHT22;5269;51.146;16.986;2023-05-18T15:33:14;19.70;99.90
10443;DHT22;5269;51.146;16.986;2023-05-18T15:35:41;19.80;99.90
10443;DHT22;5269;51.146;16.986;2023-05-18T15:38:14;19.70;99.90
10443;DHT22;5269;51.146;16.986;2023-05-18T15:44:19;20.40;99.90
10443;DHT22;5269;51.146;16.986;2023-05-18T15:46:46;20.60;99.90
10443;DHT22;5269;51.146;16.986;2023-05-18T15:49:14;20.60;99.90
10443;DHT22;5269;51.146;16.986;2023-05-18T15:51:41;20.50;99.90
10443;DHT22;5269;51.146;16.986;2023-05-18T15:54:08;19.80;99.90
10443;DHT22;5269;51.146;16.986;2023-05-18T15:56:35;19.40;99.90
10443;DHT22;5269;51.146;16.986;2023-05-18T15:59:03;18.90;99.90
10443;DHT22;5269;51.146;16.986;2023-05-18T16:01:31;19.00;99.90